Time;durP1;ratioP1;P1;durP2;ratioP2;P2;SDS_P1;SDS_P2;PMS_P1;PMS_P2;Temp;Humidity;BMP_temperature;BMP_pressure;BME280_temperature;BME280_humidity;BME280_pressure;Samples;Min_cycle;Max_cycle;Signal;HPM_P1;HPM_P2
2024/02/23 00:00:05;;;;;;;13.05;2.28;;;;;;;4.57;100.00;98690.19;5053260;28;20041;-81
2024/02/23 00:02:31;;;;;;;21.90;2.05;;;;;;;4.54;100.00;98706.28;5054927;28;20029;-80
2024/02/23 00:04:57;;;;;;;14.30;1.92;;;;;;;4.55;100.00;98715.00;5053060;28;20036;-81
2024/02/23 00:07:22;;;;;;;9.30;1.98;;;;;;;4.63;100.00;98704.56;5053193;28;20029;-80
2024/02/23 00:09:47;;;;;;;15.35;2.20;;;;;;;4.61;100.00;98703.88;5054171;28;20029;-81
2024/02/23 00:12:13;;;;;;;20.20;2.40;;;;;;;4.57;100.00;98708.63;5052764;28;20086;-81
2024/02/23 00:14:39;;;;;;;9.57;2.40;;;;;;;4.52;100.00;98715.31;5054082;28;20064;-78
2024/02/23 00:17:04;;;;;;;31.83;2.92;;;;;;;4.56;100.00;98730.66;5052339;28;20033;-80
2024/02/23 00:19:35;;;;;;;8.40;1.88;;;;;;;4.63;100.00;98723.00;5053811;28;20047;-80
2024/02/23 00:22:01;;;;;;;18.77;2.65;;;;;;;4.68;100.00;98736.53;5035958;28;20029;-81
2024/02/23 00:24:26;;;;;;;14.13;1.77;;;;;;;4.71;100.00;98724.84;5053630;28;20072;-82
2024/02/23 00:26:52;;;;;;;17.25;2.90;;;;;;;4.72;100.00;98731.78;5053240;28;20025;-80
2024/02/23 00:29:17;;;;;;;15.25;2.47;;;;;;;4.67;100.00;98734.03;5053768;28;20067;-80
2024/02/23 00:31:45;;;;;;;10.75;1.55;;;;;;;4.64;100.00;98735.16;5052716;28;20497;-80
2024/02/23 00:34:11;;;;;;;17.80;2.60;;;;;;;4.65;100.00;98738.66;5052380;28;20049;-80
2024/02/23 00:36:40;;;;;;;13.18;2.60;;;;;;;4.72;100.00;98743.16;5053632;28;20132;-81
2024/02/23 00:39:07;;;;;;;12.13;2.03;;;;;;;4.73;100.00;98741.34;5053551;28;20057;-81
2024/02/23 00:41:33;;;;;;;24.17;6.60;;;;;;;4.73;100.00;98742.19;5052727;28;20075;-81
2024/02/23 00:43:58;;;;;;;16.25;2.53;;;;;;;4.68;100.00;98749.69;5052153;28;20438;-83
2024/02/23 00:46:23;;;;;;;9.85;1.75;;;;;;;4.67;100.00;98739.31;5054001;28;20454;-81
2024/02/23 00:48:49;;;;;;;17.70;2.78;;;;;;;4.62;100.00;98768.75;5051995;28;20402;-81
2024/02/23 00:51:14;;;;;;;11.90;1.70;;;;;;;4.61;100.00;98750.47;5052252;28;20116;-80
2024/02/23 00:53:40;;;;;;;12.68;1.75;;;;;;;4.66;100.00;98753.44;5053415;28;20033;-81
2024/02/23 00:56:05;;;;;;;10.65;2.05;;;;;;;4.68;100.00;98749.69;5052033;28;20036;-82
2024/02/23 00:58:31;;;;;;;12.95;1.83;;;;;;;4.69;100.00;98764.53;5053108;28;20048;-81
2024/02/23 01:00:56;;;;;;;12.30;2.80;;;;;;;4.71;100.00;98770.47;5051886;28;20087;-82
2024/02/23 01:03:22;;;;;;;13.73;2.10;;;;;;;4.63;100.00;98785.38;5053703;28;20188;-81
2024/02/23 01:05:47;;;;;;;12.52;1.92;;;;;;;4.65;100.00;98772.91;5053454;28;20025;-81
2024/02/23 01:08:13;;;;;;;8.43;1.70;;;;;;;4.67;100.00;98778.81;5035053;28;20060;-80
2024/02/23 01:10:38;;;;;;;14.85;1.95;;;;;;;4.65;100.00;98791.34;5051998;28;20044;-81
2024/02/23 01:13:04;;;;;;;8.82;1.90;;;;;;;4.62;100.00;98786.38;5051594;28;20040;-82
2024/02/23 01:15:30;;;;;;;18.35;2.33;;;;;;;4.50;100.00;98788.41;5051939;28;20040;-80
2024/02/23 01:17:56;;;;;;;7.90;1.75;;;;;;;4.54;100.00;98779.22;5053448;28;20037;-81
2024/02/23 01:20:21;;;;;;;12.85;2.20;;;;;;;4.57;100.00;98789.47;5053088;28;20358;-82
2024/02/23 01:22:47;;;;;;;7.38;1.90;;;;;;;4.59;100.00;98798.84;5052850;28;20033;-82
2024/02/23 01:25:14;;;;;;;15.50;2.35;;;;;;;4.57;100.00;98821.06;5052878;28;20400;-81
2024/02/23 01:27:40;;;;;;;15.77;2.42;;;;;;;4.54;100.00;98835.34;5052934;28;20079;-81
2024/02/23 01:30:06;;;;;;;10.90;2.10;;;;;;;4.41;100.00;98812.00;5052955;28;20037;-85
2024/02/23 01:32:31;;;;;;;13.45;2.17;;;;;;;4.15;100.00;98818.97;5052656;28;20033;-84
2024/02/23 01:34:56;;;;;;;10.73;1.73;;;;;;;3.89;100.00;98817.84;5052571;28;20506;-83
2024/02/23 01:37:22;;;;;;;10.18;2.15;;;;;;;3.78;100.00;98831.19;5052986;28;20107;-84
2024/02/23 01:39:47;;;;;;;15.65;2.42;;;;;;;3.68;100.00;98825.97;5053486;28;20060;-84
2024/02/23 01:42:12;;;;;;;16.02;2.65;;;;;;;3.59;100.00;98836.53;5051468;28;20104;-83
2024/02/23 01:44:39;;;;;;;14.68;2.13;;;;;;;3.51;100.00;98832.00;5050917;28;20398;-82
2024/02/23 01:47:04;;;;;;;16.95;2.45;;;;;;;3.47;100.00;98831.44;5052957;28;20036;-85
2024/02/23 01:49:31;;;;;;;9.23;1.75;;;;;;;3.52;100.00;98839.72;5051464;28;20033;-82
2024/02/23 01:52:02;;;;;;;16.67;1.70;;;;;;;3.58;100.00;98842.75;5052414;28;20132;-83
2024/02/23 01:54:29;;;;;;;10.77;1.80;;;;;;;3.60;100.00;98840.78;5052053;28;20066;-83
2024/02/23 01:56:56;;;;;;;3.85;1.40;;;;;;;3.64;100.00;98843.03;5052426;28;20025;-83
2024/02/23 01:59:23;;;;;;;5.43;1.20;;;;;;;3.59;100.00;98845.22;5050937;28;20032;-84
2024/02/23 02:01:48;;;;;;;13.48;1.70;;;;;;;3.61;100.00;98845.91;5052084;28;20474;-84
2024/02/23 02:04:14;;;;;;;12.32;1.45;;;;;;;3.59;100.00;98853.13;5051404;28;20108;-83
2024/02/23 02:06:39;;;;;;;15.60;2.08;;;;;;;3.54;100.00;98850.09;5052423;28;20057;-83
2024/02/23 02:09:05;;;;;;;8.90;1.88;;;;;;;3.48;100.00;98859.38;5052385;28;20359;-83
2024/02/23 02:11:31;;;;;;;15.95;1.95;;;;;;;3.43;100.00;98851.06;5051268;28;20040;-83
2024/02/23 02:13:56;;;;;;;8.50;1.40;;;;;;;3.38;100.00;98853.31;5052356;28;20078;-82
2024/02/23 02:16:21;;;;;;;12.90;1.95;;;;;;;3.33;100.00;98864.25;5052091;28;20108;-82
2024/02/23 02:18:47;;;;;;;11.55;2.03;;;;;;;3.40;100.00;98847.91;5050814;28;20029;-83
2024/02/23 02:21:12;;;;;;;9.73;1.40;;;;;;;3.44;100.00;98852.75;5018411;28;20128;-83
2024/02/23 02:23:38;;;;;;;15.45;1.40;;;;;;;3.47;100.00;98849.84;5051225;28;20549;-83
2024/02/23 02:26:03;;;;;;;5.20;1.30;;;;;;;3.52;100.00;98854.66;5050703;28;20387;-82
2024/02/23 02:28:29;;;;;;;12.35;1.60;;;;;;;3.51;100.00;98853.84;5052073;28;20477;-83
2024/02/23 02:30:55;;;;;;;8.82;1.90;;;;;;;3.56;100.00;98860.47;5052061;28;20029;-83
2024/02/23 02:33:21;;;;;;;8.27;1.60;;;;;;;3.62;100.00;98855.47;5051936;28;20424;-83
2024/02/23 02:35:46;;;;;;;12.50;1.98;;;;;;;3.70;100.00;98865.25;5051993;28;20467;-83
2024/02/23 02:38:11;;;;;;;10.10;1.85;;;;;;;3.78;100.00;98852.25;5052028;28;20049;-84
2024/02/23 02:40:37;;;;;;;12.90;1.45;;;;;;;3.81;100.00;98856.41;5052276;28;20104;-82
2024/02/23 02:43:03;;;;;;;11.55;1.85;;;;;;;3.80;100.00;98855.53;5051546;28;20037;-82
2024/02/23 02:45:29;;;;;;;8.93;1.42;;;;;;;3.79;100.00;98853.06;5053873;28;20029;-82
2024/02/23 02:47:54;;;;;;;11.88;1.40;;;;;;;3.80;100.00;98857.34;5051419;28;20037;-82
2024/02/23 02:50:20;;;;;;;6.53;1.17;;;;;;;3.83;100.00;98859.69;5051990;28;20142;-83
2024/02/23 02:52:48;;;;;;;13.10;2.15;;;;;;;3.90;100.00;98863.41;5051244;28;20040;-81
2024/02/23 02:55:13;;;;;;;7.50;1.45;;;;;;;4.02;100.00;98862.25;5051104;28;20109;-81
2024/02/23 02:57:39;;;;;;;10.38;1.45;;;;;;;4.09;100.00;98857.25;5050579;28;20033;-82
2024/02/23 03:00:05;;;;;;;10.18;1.77;;;;;;;4.05;100.00;98853.25;5051619;28;20104;-82
2024/02/23 03:02:40;;;;;;;11.63;2.08;;;;;;;4.04;100.00;98859.47;5050081;28;20555;-83
2024/02/23 03:05:06;;;;;;;10.85;1.58;;;;;;;4.09;100.00;98856.41;5051917;28;20064;-82
2024/02/23 03:07:33;;;;;;;11.70;2.17;;;;;;;4.11;100.00;98847.38;5051476;28;20430;-82
2024/02/23 03:09:59;;;;;;;11.90;2.38;;;;;;;4.10;100.00;98858.06;5051416;28;20431;-83
2024/02/23 03:12:25;;;;;;;12.18;1.52;;;;;;;4.03;100.00;98856.03;5050118;28;20065;-82
2024/02/23 03:14:50;;;;;;;9.00;1.92;;;;;;;3.90;100.00;98866.03;5051447;28;20033;-81
2024/02/23 03:17:16;;;;;;;21.20;2.70;;;;;;;3.79;100.00;98874.94;5052069;28;20351;-86
2024/02/23 03:19:41;;;;;;;8.18;1.50;;;;;;;3.66;100.00;98872.63;5051978;28;20098;-82
2024/02/23 03:22:06;;;;;;;8.45;1.65;;;;;;;3.60;100.00;98873.19;5050895;28;20033;-83
2024/02/23 03:24:32;;;;;;;11.07;2.22;;;;;;;3.59;100.00;98882.06;5051210;28;20072;-82
2024/02/23 03:26:57;;;;;;;5.63;1.63;;;;;;;3.58;100.00;98888.28;5051123;28;20067;-83
2024/02/23 03:29:29;;;;;;;13.02;2.20;;;;;;;3.52;100.00;98888.84;5049884;28;20542;-83
2024/02/23 03:31:54;;;;;;;17.05;1.67;;;;;;;3.50;100.00;98881.09;5051635;28;20029;-83
2024/02/23 03:34:20;;;;;;;10.57;1.80;;;;;;;3.47;100.00;98884.00;5051337;28;20098;-84
2024/02/23 03:36:48;;;;;;;15.52;2.10;;;;;;;3.37;100.00;98885.00;5050908;28;20115;-81
2024/02/23 03:39:14;;;;;;;8.80;1.83;;;;;;;3.28;100.00;98899.81;5053148;28;20403;-82
2024/02/23 03:41:39;;;;;;;14.23;2.38;;;;;;;3.24;100.00;98895.81;5054900;28;20033;-82
2024/02/23 03:44:05;;;;;;;8.82;1.75;;;;;;;3.22;100.00;98897.75;5054968;28;20254;-81
2024/02/23 03:46:30;;;;;;;13.13;2.10;;;;;;;3.22;100.00;98897.75;5055207;28;20033;-81
2024/02/23 03:48:57;;;;;;;9.65;1.48;;;;;;;3.16;100.00;98899.13;5054758;28;20310;-81
2024/02/23 03:51:22;;;;;;;10.70;1.73;;;;;;;3.10;100.00;98903.13;5055180;28;20029;-82
2024/02/23 03:53:48;;;;;;;11.40;2.00;;;;;;;3.09;100.00;98908.53;5054416;28;20062;-82
2024/02/23 03:56:13;;;;;;;15.05;2.08;;;;;;;3.12;100.00;98909.09;5054885;28;20033;-82
2024/02/23 03:58:38;;;;;;;7.50;1.45;;;;;;;3.16;100.00;98904.38;5053173;28;20033;-81
2024/02/23 04:01:04;;;;;;;10.60;1.70;;;;;;;3.15;100.00;98906.19;5054563;28;20033;-81
2024/02/23 04:03:29;;;;;;;6.55;1.38;;;;;;;3.09;100.00;98904.13;5054746;28;20041;-83
2024/02/23 04:05:55;;;;;;;9.95;1.63;;;;;;;3.01;100.00;98896.09;5054498;28;20068;-83
2024/02/23 04:08:20;;;;;;;15.75;2.03;;;;;;;2.93;100.00;98894.16;5054103;28;20029;-82
2024/02/23 04:10:45;;;;;;;13.23;2.30;;;;;;;2.85;100.00;98890.56;5054531;28;20025;-83
2024/02/23 04:13:13;;;;;;;15.73;2.38;;;;;;;2.78;100.00;98901.59;5052904;28;20041;-81
2024/02/23 04:15:39;;;;;;;7.53;1.60;;;;;;;2.70;100.00;98905.88;5052815;28;20122;-82
2024/02/23 04:18:05;;;;;;;10.65;1.55;;;;;;;2.64;100.00;98912.50;5054286;28;20144;-82
2024/02/23 04:20:30;;;;;;;9.65;1.85;;;;;;;2.56;100.00;98905.31;5054361;28;20078;-82
2024/02/23 04:22:56;;;;;;;14.23;2.15;;;;;;;2.52;100.00;98908.34;5054173;28;20123;-81
2024/02/23 04:25:21;;;;;;;11.73;2.08;;;;;;;2.55;100.00;98908.06;5036299;28;20463;-81
2024/02/23 04:27:46;;;;;;;7.40;1.80;;;;;;;2.55;100.00;98914.13;5053889;28;20040;-82
2024/02/23 04:30:12;;;;;;;11.63;1.85;;;;;;;2.59;100.00;98914.72;5053866;28;20449;-81
2024/02/23 04:32:38;;;;;;;5.05;1.27;;;;;;;2.69;100.00;98925.22;5052005;28;20340;-81
2024/02/23 04:35:04;;;;;;;7.38;1.73;;;;;;;2.73;100.00;98921.38;5052494;28;20083;-81
2024/02/23 04:37:30;;;;;;;13.65;2.30;;;;;;;2.83;100.00;98935.34;5053714;28;20033;-82
2024/02/23 04:39:55;;;;;;;11.38;2.28;;;;;;;2.92;100.00;98925.81;5054181;28;20147;-82
2024/02/23 04:42:21;;;;;;;10.43;1.80;;;;;;;3.03;100.00;98924.84;5053879;28;20048;-81
2024/02/23 04:44:46;;;;;;;9.63;1.63;;;;;;;3.13;100.00;98939.66;5052125;28;20386;-81
2024/02/23 04:47:11;;;;;;;8.40;1.30;;;;;;;3.21;100.00;98928.47;5052448;28;20064;-82
2024/02/23 04:49:37;;;;;;;7.82;1.08;;;;;;;3.18;100.00;98920.88;5060375;28;20053;-84
2024/02/23 04:52:05;;;;;;;5.55;1.35;;;;;;;3.12;100.00;98910.88;5062118;28;20439;-84
2024/02/23 04:54:30;;;;;;;6.30;1.27;;;;;;;3.05;100.00;98910.63;5065179;28;20032;-83
2024/02/23 04:56:55;;;;;;;11.48;1.58;;;;;;;2.97;100.00;98913.09;5044468;28;20059;-83
2024/02/23 04:59:21;;;;;;;7.00;1.10;;;;;;;2.89;100.00;98918.22;5054043;28;20029;-82
2024/02/23 05:01:47;;;;;;;11.80;1.63;;;;;;;2.85;100.00;98911.56;5052090;28;20115;-84
2024/02/23 05:04:12;;;;;;;4.93;1.15;;;;;;;2.81;100.00;98911.84;5053559;28;20156;-83
2024/02/23 05:06:37;;;;;;;3.78;0.65;;;;;;;2.80;100.00;98920.69;5053411;28;20053;-83
2024/02/23 05:09:03;;;;;;;9.95;0.80;;;;;;;2.85;100.00;98922.06;5053287;28;20025;-83
2024/02/23 05:11:28;;;;;;;8.18;1.50;;;;;;;2.88;100.00;98917.41;5053286;28;20037;-82
2024/02/23 05:13:53;;;;;;;5.30;0.95;;;;;;;2.90;100.00;98917.25;5053313;28;20036;-82
2024/02/23 05:16:19;;;;;;;5.47;1.42;;;;;;;2.90;100.00;98909.38;5052070;28;20040;-82
2024/02/23 05:18:46;;;;;;;6.07;0.85;;;;;;;2.90;100.00;98914.63;5052739;28;20455;-82
2024/02/23 05:21:12;;;;;;;5.30;1.02;;;;;;;2.91;100.00;98903.13;5053573;28;20040;-82
2024/02/23 05:23:37;;;;;;;4.13;0.98;;;;;;;2.90;100.00;98907.56;5053016;28;20037;-83
2024/02/23 05:26:03;;;;;;;8.60;1.25;;;;;;;2.90;100.00;98904.94;5052114;28;20086;-84
2024/02/23 05:28:28;;;;;;;4.65;1.13;;;;;;;2.94;100.00;98908.97;5051962;28;20068;-81
2024/02/23 05:30:56;;;;;;;10.10;1.45;;;;;;;2.97;100.00;98902.56;5053115;28;20083;-82
2024/02/23 05:33:21;;;;;;;5.72;1.27;;;;;;;3.03;100.00;98899.44;5052901;28;20079;-82
2024/02/23 05:35:50;;;;;;;8.98;1.67;;;;;;;3.09;100.00;98900.66;5052569;28;20170;-82
2024/02/23 05:38:18;;;;;;;12.02;1.60;;;;;;;3.16;100.00;98896.50;5052497;28;20053;-82
2024/02/23 05:40:45;;;;;;;8.82;1.77;;;;;;;3.23;100.00;98902.06;5052648;28;20028;-82
2024/02/23 05:43:10;;;;;;;12.80;2.20;;;;;;;3.24;100.00;98895.81;5051050;28;20482;-83
2024/02/23 05:45:36;;;;;;;6.18;1.80;;;;;;;3.30;100.00;98898.72;5052884;28;20028;-82
2024/02/23 05:48:02;;;;;;;13.30;4.18;;;;;;;3.34;100.00;98897.47;5051312;28;20514;-82
2024/02/23 05:50:28;;;;;;;7.00;2.25;;;;;;;3.39;100.00;98891.78;5052880;28;20131;-82
2024/02/23 05:52:53;;;;;;;7.93;1.83;;;;;;;3.42;100.00;98899.41;5052636;28;20080;-83
2024/02/23 05:55:18;;;;;;;5.18;2.42;;;;;;;3.44;100.00;98891.38;5051971;28;20037;-83
2024/02/23 05:57:44;;;;;;;5.38;1.90;;;;;;;3.46;100.00;98902.56;5052469;28;20029;-82
2024/02/23 06:00:12;;;;;;;7.47;2.15;;;;;;;3.46;100.00;98886.78;5050530;28;20048;-82
2024/02/23 06:02:38;;;;;;;7.32;1.92;;;;;;;3.47;100.00;98881.38;5052529;28;20044;-86
2024/02/23 06:05:07;;;;;;;7.03;1.83;;;;;;;3.49;100.00;98894.38;5052352;28;20029;-82
2024/02/23 06:07:33;;;;;;;6.95;2.53;;;;;;;3.47;100.00;98886.66;5052074;28;20206;-81
2024/02/23 06:09:58;;;;;;;3.95;2.05;;;;;;;3.48;100.00;98871.72;5052066;28;20087;-81
2024/02/23 06:12:24;;;;;;;8.07;2.20;;;;;;;3.50;100.00;98873.22;5017241;28;20021;-82
2024/02/23 06:14:51;;;;;;;7.40;2.10;;;;;;;3.50;100.00;98870.59;5050879;28;20037;-82
2024/02/23 06:17:16;;;;;;;11.20;2.90;;;;;;;3.54;100.00;98881.66;5052336;28;20158;-82
2024/02/23 06:19:42;;;;;;;8.35;2.95;;;;;;;3.59;100.00;98876.78;5052300;28;20395;-82
2024/02/23 06:22:09;;;;;;;9.38;3.03;;;;;;;3.61;100.00;98872.22;5050385;28;20108;-80
2024/02/23 06:24:35;;;;;;;6.93;2.60;;;;;;;3.62;100.00;98866.00;5051727;28;20124;-81
2024/02/23 06:27:01;;;;;;;10.90;2.90;;;;;;;3.62;100.00;98867.78;5050839;28;20107;-81
2024/02/23 06:29:28;;;;;;;13.40;3.78;;;;;;;3.65;100.00;98870.13;5052018;28;20041;-81
2024/02/23 06:31:54;;;;;;;13.15;3.05;;;;;;;3.68;100.00;98870.66;5051667;28;20029;-82
2024/02/23 06:34:19;;;;;;;10.20;2.58;;;;;;;3.68;100.00;98875.13;5050338;28;20037;-81
2024/02/23 06:36:44;;;;;;;5.85;2.33;;;;;;;3.67;100.00;98870.81;5051906;28;20029;-81
2024/02/23 06:39:12;;;;;;;6.97;2.30;;;;;;;3.68;100.00;98860.16;5050208;28;20132;-80
2024/02/23 06:41:41;;;;;;;6.38;2.60;;;;;;;3.70;100.00;98867.91;5050091;28;20090;-80
2024/02/23 06:44:06;;;;;;;8.60;2.28;;;;;;;3.71;100.00;98870.38;5051664;28;20132;-81
2024/02/23 06:46:32;;;;;;;7.72;2.60;;;;;;;3.70;100.00;98865.25;5050077;28;20032;-81
2024/02/23 06:48:57;;;;;;;10.35;2.47;;;;;;;3.72;100.00;98876.50;5050338;28;20029;-82
2024/02/23 06:51:23;;;;;;;5.72;2.40;;;;;;;3.71;100.00;98873.00;5051780;28;20481;-81
2024/02/23 06:53:48;;;;;;;5.07;2.10;;;;;;;3.70;100.00;98874.00;5051344;28;20096;-82
2024/02/23 06:56:14;;;;;;;9.00;2.35;;;;;;;3.74;100.00;98879.81;5051631;28;20029;-79
2024/02/23 06:58:42;;;;;;;8.93;2.78;;;;;;;3.75;100.00;98873.56;5050626;28;20048;-81
2024/02/23 07:01:11;;;;;;;9.45;2.17;;;;;;;3.73;100.00;98870.25;5050960;28;20080;-81
2024/02/23 07:03:36;;;;;;;10.35;2.50;;;;;;;3.71;100.00;98870.38;5051541;28;20041;-80
2024/02/23 07:06:03;;;;;;;8.00;2.20;;;;;;;3.74;100.00;98869.28;5049891;28;20453;-81
2024/02/23 07:08:28;;;;;;;6.25;2.47;;;;;;;3.75;100.00;98876.22;5051294;28;20111;-81
2024/02/23 07:10:53;;;;;;;8.88;2.45;;;;;;;3.70;100.00;98866.13;5051411;28;20057;-84
2024/02/23 07:13:19;;;;;;;14.90;3.13;;;;;;;3.64;100.00;98879.00;5055504;28;20126;-83
2024/02/23 07:15:48;;;;;;;8.18;2.42;;;;;;;3.58;100.00;98869.88;5055396;28;20041;-82
2024/02/23 07:18:13;;;;;;;13.32;3.25;;;;;;;3.49;100.00;98868.09;5054040;28;20087;-82
2024/02/23 07:20:38;;;;;;;11.75;3.25;;;;;;;3.43;100.00;98869.47;5054138;28;20041;-82
2024/02/23 07:23:04;;;;;;;11.27;3.38;;;;;;;3.34;100.00;98868.56;5055154;28;20045;-82
2024/02/23 07:25:30;;;;;;;14.13;3.45;;;;;;;3.30;100.00;98859.28;5055531;28;20040;-82
2024/02/23 07:27:55;;;;;;;11.52;2.92;;;;;;;3.25;100.00;98868.56;5055213;28;20052;-82
2024/02/23 07:30:20;;;;;;;6.95;2.97;;;;;;;3.20;100.00;98855.84;5055637;28;20151;-82
2024/02/23 07:32:46;;;;;;;10.02;2.63;;;;;;;3.15;100.00;98900.94;5054196;28;20132;-86
2024/02/23 07:35:12;;;;;;;9.85;3.08;;;;;;;3.09;100.00;98880.47;5056165;28;20363;-82
2024/02/23 07:37:37;;;;;;;9.75;3.50;;;;;;;3.04;100.00;98889.75;5054294;28;20048;-84
2024/02/23 07:40:04;;;;;;;7.15;3.10;;;;;;;2.94;100.00;98876.59;5055163;28;20052;-81
2024/02/23 07:42:31;;;;;;;12.35;3.55;;;;;;;2.85;100.00;98883.50;5053703;28;20064;-82
2024/02/23 07:44:56;;;;;;;9.25;3.50;;;;;;;2.74;100.00;98881.00;5054272;28;20064;-83
2024/02/23 07:47:22;;;;;;;7.30;3.45;;;;;;;2.65;100.00;98880.84;5036947;28;20061;-82
2024/02/23 07:49:47;;;;;;;10.68;3.75;;;;;;;2.59;100.00;98883.19;5053922;28;20036;-80
2024/02/23 07:52:13;;;;;;;11.50;3.83;;;;;;;2.54;100.00;98880.13;5054498;28;20099;-80
2024/02/23 07:54:38;;;;;;;10.07;3.83;;;;;;;2.50;100.00;98895.34;5055306;28;20427;-83
2024/02/23 07:57:07;;;;;;;11.98;3.80;;;;;;;2.47;100.00;98875.44;5052899;28;20501;-81
2024/02/23 07:59:32;;;;;;;12.52;3.92;;;;;;;2.45;100.00;98871.31;5053371;28;20091;-82
2024/02/23 08:01:58;;;;;;;8.35;3.72;;;;;;;2.46;100.00;98881.66;5053387;28;20037;-83
2024/02/23 08:04:26;;;;;;;9.50;3.72;;;;;;;2.50;100.00;98873.53;5054627;28;20111;-83
2024/02/23 08:06:51;;;;;;;15.40;3.85;;;;;;;2.54;100.00;98872.25;5053976;28;20068;-82
2024/02/23 08:09:17;;;;;;;12.23;4.82;;;;;;;2.57;100.00;98874.66;5054308;28;20419;-82
2024/02/23 08:11:43;;;;;;;19.02;4.28;;;;;;;2.62;100.00;98875.88;5054122;28;20037;-82
2024/02/23 08:14:08;;;;;;;15.15;3.50;;;;;;;2.65;100.00;98875.59;5054152;28;20033;-82
2024/02/23 08:16:34;;;;;;;12.68;3.97;;;;;;;2.69;100.00;98872.69;5054273;28;20025;-77
2024/02/23 08:18:59;;;;;;;13.10;4.45;;;;;;;2.73;100.00;98874.09;5036692;28;20477;-81
2024/02/23 08:21:26;;;;;;;12.52;3.45;;;;;;;2.73;100.00;98860.97;5054178;28;20254;-78
2024/02/23 08:23:52;;;;;;;8.38;3.65;;;;;;;2.78;100.00;98867.47;5035217;28;20128;-80
2024/02/23 08:26:17;;;;;;;13.95;4.38;;;;;;;2.81;100.00;98869.00;5052837;28;20100;-79
2024/02/23 08:28:42;;;;;;;16.55;4.18;;;;;;;2.83;100.00;98885.44;5053991;28;20419;-82
2024/02/23 08:31:08;;;;;;;11.00;3.65;;;;;;;2.85;100.00;98875.59;5054098;28;20523;-81
2024/02/23 08:33:33;;;;;;;16.30;4.72;;;;;;;2.85;100.00;98875.59;5054612;28;20033;-79
2024/02/23 08:35:59;;;;;;;13.27;4.05;;;;;;;2.86;100.00;98881.72;5053845;28;20398;-85
2024/02/23 08:38:25;;;;;;;11.05;3.70;;;;;;;2.87;100.00;98867.63;5052637;28;20356;-80
2024/02/23 08:40:50;;;;;;;15.25;3.85;;;;;;;2.88;100.00;98888.50;5054456;28;20402;-80
2024/02/23 08:43:15;;;;;;;11.13;3.47;;;;;;;2.87;100.00;98880.75;5052929;28;20037;-82
2024/02/23 08:45:41;;;;;;;14.90;4.03;;;;;;;2.87;100.00;98883.38;5053609;28;20037;-81
2024/02/23 08:48:07;;;;;;;12.23;4.00;;;;;;;2.88;100.00;98879.75;5054789;28;20059;-79
2024/02/23 08:50:32;;;;;;;13.27;3.63;;;;;;;2.90;100.00;98881.31;5036624;28;20044;-80
2024/02/23 08:52:57;;;;;;;9.88;2.90;;;;;;;2.93;100.00;98870.50;5053557;28;20033;-81
2024/02/23 08:55:23;;;;;;;18.02;3.90;;;;;;;2.97;100.00;98877.16;5054322;28;20512;-78
2024/02/23 08:57:50;;;;;;;17.95;3.80;;;;;;;3.02;100.00;98870.66;5054665;28;20033;-80
2024/02/23 09:00:18;;;;;;;10.60;3.10;;;;;;;3.05;100.00;98876.47;5054716;28;20033;-83
2024/02/23 09:02:44;;;;;;;17.90;4.30;;;;;;;3.10;100.00;98879.47;5054988;28;20386;-83
2024/02/23 09:05:09;;;;;;;16.33;3.38;;;;;;;3.13;100.00;98881.84;5054567;28;20501;-85
2024/02/23 09:07:35;;;;;;;11.43;3.20;;;;;;;3.17;100.00;98875.34;5054247;28;20083;-84
2024/02/23 09:10:01;;;;;;;8.65;2.80;;;;;;;3.27;100.00;98870.09;5053974;28;20052;-82
2024/02/23 09:12:26;;;;;;;9.98;2.97;;;;;;;3.38;100.00;98879.59;5054133;28;20029;-85
2024/02/23 09:14:52;;;;;;;9.25;2.67;;;;;;;3.44;100.00;98865.91;5052592;28;20500;-83
2024/02/23 09:17:18;;;;;;;14.82;3.15;;;;;;;3.49;100.00;98879.47;5054076;28;20032;-84
2024/02/23 09:19:44;;;;;;;6.90;2.67;;;;;;;3.56;100.00;98871.00;5037044;28;20392;-82
2024/02/23 09:22:10;;;;;;;11.38;2.65;;;;;;;3.57;100.00;98880.53;5053547;28;20064;-82
2024/02/23 09:24:39;;;;;;;6.07;2.40;;;;;;;3.59;100.00;98865.44;5054075;28;20033;-84
2024/02/23 09:27:05;;;;;;;11.65;2.72;;;;;;;3.63;100.00;98883.44;5054253;28;20043;-83
2024/02/23 09:29:30;;;;;;;23.63;2.90;;;;;;;3.67;100.00;98871.66;5052487;28;20029;-79
2024/02/23 09:31:55;;;;;;;15.05;2.20;;;;;;;3.74;100.00;98871.91;5052177;28;20033;-83
2024/02/23 09:34:21;;;;;;;8.77;2.33;;;;;;;3.85;100.00;98878.78;5018846;28;20143;-83
2024/02/23 09:36:46;;;;;;;9.00;2.65;;;;;;;3.99;100.00;98874.88;5053834;28;20120;-84
2024/02/23 09:39:11;;;;;;;5.90;1.95;;;;;;;4.11;100.00;98886.06;5053388;28;20107;-82
2024/02/23 09:41:39;;;;;;;5.80;2.30;;;;;;;4.16;100.00;98889.06;5053255;28;20033;-81
2024/02/23 09:44:07;;;;;;;10.00;2.35;;;;;;;4.28;100.00;98887.06;5052856;28;20399;-81
2024/02/23 09:46:33;;;;;;;5.97;2.20;;;;;;;4.40;100.00;98884.09;5053180;28;20037;-82
2024/02/23 09:49:00;;;;;;;11.63;2.00;;;;;;;4.55;100.00;98876.53;5053252;28;20379;-81
2024/02/23 09:51:29;;;;;;;9.55;2.55;;;;;;;5.02;100.00;98879.94;5051942;28;20040;-83
2024/02/23 09:53:54;;;;;;;7.15;1.77;;;;;;;5.33;100.00;98882.16;5052709;28;20439;-82
2024/02/23 09:56:24;;;;;;;9.10;1.92;;;;;;;5.35;100.00;98859.94;5051834;28;20462;-82
2024/02/23 09:58:51;;;;;;;4.60;1.63;;;;;;;5.27;100.00;98865.16;5052376;28;20033;-83
2024/02/23 10:01:27;;;;;;;8.40;1.98;;;;;;;5.26;100.00;98890.69;5051876;28;20059;-84
2024/02/23 10:03:56;;;;;;;6.03;2.05;;;;;;;5.66;100.00;98891.16;5053060;28;20039;-84
2024/02/23 10:06:21;;;;;;;8.23;1.80;;;;;;;7.53;100.00;98898.94;5052631;28;20025;-83
2024/02/23 10:08:46;;;;;;;7.88;1.70;;;;;;;8.32;100.00;98885.03;5053028;28;20036;-82
2024/02/23 10:11:12;;;;;;;5.82;1.60;;;;;;;7.79;100.00;98884.69;5052251;28;20040;-82
2024/02/23 10:13:37;;;;;;;9.38;2.15;;;;;;;7.56;100.00;98881.94;5052725;28;20033;-79
2024/02/23 10:16:04;;;;;;;5.68;1.60;;;;;;;7.68;100.00;98879.75;5053039;28;20124;-78
2024/02/23 10:18:29;;;;;;;4.78;1.40;;;;;;;7.20;100.00;98893.66;5052925;28;20044;-81
2024/02/23 10:20:56;;;;;;;3.67;1.40;;;;;;;6.65;100.00;98896.91;5051453;28;20037;-81
2024/02/23 10:23:21;;;;;;;5.18;1.60;;;;;;;6.24;100.00;98900.22;5052399;28;20091;-82
2024/02/23 10:25:47;;;;;;;5.38;1.70;;;;;;;6.13;100.00;98917.16;5052267;28;20037;-79
2024/02/23 10:28:12;;;;;;;9.20;1.63;;;;;;;5.99;100.00;98902.75;5052666;28;20075;-79
2024/02/23 10:30:38;;;;;;;7.72;1.70;;;;;;;5.99;100.00;98909.84;5051214;28;20462;-77
2024/02/23 10:33:05;;;;;;;4.25;1.60;;;;;;;6.10;100.00;98922.75;5052452;28;20494;-79
2024/02/23 10:35:35;;;;;;;5.22;1.70;;;;;;;6.16;100.00;98918.66;5052724;28;20116;-78
2024/02/23 10:38:01;;;;;;;6.50;1.55;;;;;;;6.11;100.00;98923.59;5050803;28;20467;-78
2024/02/23 10:40:31;;;;;;;10.27;1.88;;;;;;;6.03;100.00;98926.19;5052380;28;20550;-80
2024/02/23 10:42:56;;;;;;;6.43;2.10;;;;;;;6.05;100.00;98934.81;5052832;28;20041;-80
2024/02/23 10:45:22;;;;;;;4.75;1.63;;;;;;;6.15;100.00;98917.00;5050960;28;20029;-78
2024/02/23 10:47:50;;;;;;;6.25;1.45;;;;;;;6.10;100.00;98946.53;5055606;28;20477;-80
2024/02/23 10:50:18;;;;;;;6.50;1.98;;;;;;;6.08;100.00;98939.75;5056203;28;20032;-79
2024/02/23 10:52:43;;;;;;;4.20;1.65;;;;;;;6.24;100.00;98950.41;5056499;28;20033;-78
2024/02/23 10:55:09;;;;;;;5.40;1.50;;;;;;;6.34;100.00;98961.69;5056548;28;20079;-81
2024/02/23 10:57:36;;;;;;;5.55;1.80;;;;;;;6.26;100.00;98959.00;5056570;28;20078;-79
2024/02/23 11:00:06;;;;;;;5.78;1.58;;;;;;;6.17;100.00;98973.16;5055081;28;20321;-79
2024/02/23 11:02:34;;;;;;;7.93;1.90;;;;;;;6.15;100.00;98962.75;5056113;28;20193;-80
2024/02/23 11:05:00;;;;;;;6.72;1.90;;;;;;;6.02;100.00;98962.34;5056140;28;20033;-80
2024/02/23 11:07:25;;;;;;;6.85;1.75;;;;;;;5.85;100.00;98965.81;5056699;28;20035;-77
2024/02/23 11:09:58;;;;;;;8.48;1.92;;;;;;;5.82;100.00;98974.84;5054913;28;20075;-79
2024/02/23 11:12:29;;;;;;;8.63;1.85;;;;;;;5.80;100.00;98979.47;5055958;28;20040;-81
2024/02/23 11:15:01;;;;;;;;;;;;;;;5.79;100.00;98981.28;5056692;28;20461;-83
2024/02/23 11:17:28;;;;;;;8.02;1.90;;;;;;;5.77;100.00;98982.41;5056134;28;20355;-81
2024/02/23 11:19:56;;;;;;;6.63;1.95;;;;;;;5.94;100.00;98991.28;5056297;28;20033;-83
2024/02/23 11:22:31;;;;;;;6.20;1.73;;;;;;;6.12;100.00;98976.25;5058433;28;20478;-81